Time;durP1;ratioP1;P1;durP2;ratioP2;P2;SDS_P1;SDS_P2;PMS_P1;PMS_P2;Temp;Humidity;BMP_temperature;BMP_pressure;BME280_temperature;BME280_humidity;BME280_pressure;Samples;Min_cycle;Max_cycle;Signal;HPM_P1;HPM_P2
2022/09/27 00:00:30;;;;;;;2.90;2.70;;;;;;;;;;5060130;28;24454;-47
2022/09/27 00:02:56;;;;;;;2.80;2.60;;;;;;;;;;5058343;28;25296;-47
2022/09/27 00:05:21;;;;;;;3.00;2.70;;;;;;;;;;5066285;28;24488;-46
2022/09/27 00:07:46;;;;;;;3.40;3.10;;;;;;;;;;5060178;28;24430;-46
2022/09/27 00:10:11;;;;;;;2.92;2.72;;;;;;;;;;5055471;28;24442;-46
2022/09/27 00:12:37;;;;;;;2.70;2.50;;;;;;;;;;5061891;28;24996;-46
2022/09/27 00:15:03;;;;;;;2.63;2.43;;;;;;;;;;5062264;28;24459;-47
2022/09/27 00:17:28;;;;;;;2.67;2.47;;;;;;;;;;5061268;28;24459;-47
2022/09/27 00:19:55;;;;;;;2.80;2.60;;;;;;;;;;5063231;28;24452;-46
2022/09/27 00:22:20;;;;;;;3.00;2.70;;;;;;;;;;5062538;28;24520;-46
2022/09/27 00:24:46;;;;;;;2.97;2.73;;;;;;;;;;5058870;28;25114;-45
2022/09/27 00:27:11;;;;;;;2.63;2.43;;;;;;;;;;5058072;28;25199;-46
2022/09/27 00:29:36;;;;;;;2.90;2.50;;;;;;;;;;5058948;28;24501;-47
2022/09/27 00:32:02;;;;;;;2.20;2.10;;;;;;;;;;5063857;28;24423;-47
2022/09/27 00:34:27;;;;;;;2.50;2.30;;;;;;;;;;5063343;28;25000;-48
2022/09/27 00:36:52;;;;;;;2.30;2.10;;;;;;;;;;5062433;28;24481;-47
2022/09/27 00:39:17;;;;;;;2.30;2.10;;;;;;;;;;5058680;28;25016;-48
2022/09/27 00:41:42;;;;;;;2.07;1.97;;;;;;;;;;5055800;28;24510;-48
2022/09/27 00:44:27;;;;;;;3.70;2.40;;;;;;;;;;5055935;28;24464;-46
2022/09/27 00:46:59;;;;;;;1.98;1.88;;;;;;;;;;5063803;28;24429;-47
2022/09/27 00:49:28;;;;;;;3.10;2.20;;;;;;;;;;5058528;28;24423;-46
2022/09/27 00:51:56;;;;;;;2.10;1.90;;;;;;;;;;5060972;28;24429;-46
2022/09/27 00:54:23;;;;;;;2.20;2.10;;;;;;;;;;5065376;28;25035;-47
2022/09/27 00:56:49;;;;;;;2.58;2.30;;;;;;;;;;5063083;28;24431;-46
2022/09/27 00:59:20;;;;;;;2.20;2.10;;;;;;;;;;5064980;28;24480;-46
2022/09/27 01:01:45;;;;;;;2.60;2.10;;;;;;;;;;5061022;28;24509;-47
2022/09/27 01:04:12;;;;;;;2.20;2.10;;;;;;;;;;5061173;28;24556;-47
2022/09/27 01:06:37;;;;;;;2.20;2.10;;;;;;;;;;5063434;28;24605;-47
2022/09/27 01:09:03;;;;;;;2.70;2.50;;;;;;;;;;5048904;28;24548;-46
2022/09/27 01:11:42;;;;;;;2.88;2.67;;;;;;;;;;5058828;28;24505;-46
2022/09/27 01:14:17;;;;;;;3.30;3.00;;;;;;;;;;5057506;28;24893;-48
2022/09/27 01:16:51;;;;;;;3.33;3.10;;;;;;;;;;5054882;28;24425;-48
2022/09/27 01:19:31;;;;;;;3.40;3.10;;;;;;;;;;5050981;28;24435;-47
2022/09/27 01:21:59;;;;;;;3.60;3.40;;;;;;;;;;5061707;28;24500;-47
2022/09/27 01:24:28;;;;;;;3.45;3.20;;;;;;;;;;5060529;28;25086;-48
2022/09/27 01:27:06;;;;;;;3.20;3.00;;;;;;;;;;5051599;28;24415;-47
2022/09/27 01:29:43;;;;;;;3.50;3.30;;;;;;;;;;5061875;28;25027;-48
2022/09/27 01:32:17;;;;;;;3.83;3.53;;;;;;;;;;5060364;28;24453;-47
2022/09/27 01:34:46;;;;;;;3.20;3.00;;;;;;;;;;5059272;28;24887;-47
2022/09/27 01:37:21;;;;;;;3.30;3.10;;;;;;;;;;5052765;28;24438;-46
2022/09/27 01:40:01;;;;;;;3.50;3.30;;;;;;;;;;5062649;28;24429;-47
2022/09/27 01:42:30;;;;;;;3.38;3.17;;;;;;;;;;5052831;28;24418;-47
2022/09/27 01:45:03;;;;;;;3.00;2.80;;;;;;;;;;5059578;28;24438;-46
2022/09/27 01:47:33;;;;;;;3.30;3.10;;;;;;;;;;5058065;28;25041;-46
2022/09/27 01:50:03;;;;;;;2.90;2.70;;;;;;;;;;5056788;28;24449;-46
2022/09/27 01:52:41;;;;;;;2.72;2.53;;;;;;;;;;5057346;28;25103;-46
2022/09/27 01:55:10;;;;;;;2.50;2.38;;;;;;;;;;5060115;28;24431;-47
2022/09/27 01:57:41;;;;;;;2.60;2.40;;;;;;;;;;5055895;28;24430;-47
2022/09/27 02:00:08;;;;;;;2.45;2.35;;;;;;;;;;5053303;28;24491;-48
2022/09/27 02:02:36;;;;;;;2.50;2.30;;;;;;;;;;5055456;28;24423;-47
2022/09/27 02:05:03;;;;;;;2.60;2.40;;;;;;;;;;5061027;28;24434;-47
2022/09/27 02:07:36;;;;;;;2.90;2.70;;;;;;;;;;5061189;28;24797;-47
2022/09/27 02:10:05;;;;;;;2.40;2.30;;;;;;;;;;5061787;28;24446;-47
2022/09/27 02:12:34;;;;;;;2.90;2.70;;;;;;;;;;5062360;28;24427;-47
2022/09/27 02:15:08;;;;;;;2.92;2.63;;;;;;;;;;5052136;28;25072;-48
2022/09/27 02:17:41;;;;;;;2.80;2.60;;;;;;;;;;5059974;28;24434;-48
2022/09/27 02:20:16;;;;;;;2.60;2.40;;;;;;;;;;5062655;28;24426;-48
2022/09/27 02:22:44;;;;;;;2.80;2.60;;;;;;;;;;5060392;28;24430;-48
2022/09/27 02:25:22;;;;;;;3.50;3.20;;;;;;;;;;5061726;28;25266;-47
2022/09/27 02:27:53;;;;;;;3.20;3.00;;;;;;;;;;5058111;28;24887;-47
2022/09/27 02:30:18;;;;;;;3.50;3.20;;;;;;;;;;5060139;28;24430;-45
2022/09/27 02:32:44;;;;;;;4.30;4.00;;;;;;;;;;5059065;28;24468;-47
2022/09/27 02:35:13;;;;;;;4.83;4.50;;;;;;;;;;5061777;28;24431;-47
2022/09/27 02:37:38;;;;;;;4.00;3.80;;;;;;;;;;5059724;28;24469;-48
2022/09/27 02:40:04;;;;;;;4.10;3.90;;;;;;;;;;5060032;28;24423;-46
2022/09/27 02:42:30;;;;;;;4.23;3.93;;;;;;;;;;5058135;28;24433;-47
2022/09/27 02:44:55;;;;;;;4.30;4.00;;;;;;;;;;5064306;28;24459;-47
2022/09/27 02:47:47;;;;;;;4.00;3.70;;;;;;;;;;5061366;28;24458;-47
2022/09/27 02:50:38;;;;;;;3.97;3.67;;;;;;;;;;5057585;28;24459;-46
2022/09/27 02:53:18;;;;;;;4.00;3.80;;;;;;;;;;5046056;28;24433;-47
2022/09/27 02:56:02;;;;;;;3.90;3.60;;;;;;;;;;5063526;28;24430;-48
2022/09/27 02:58:36;;;;;;;3.70;3.40;;;;;;;;;;5063486;28;25053;-48
2022/09/27 03:01:07;;;;;;;4.23;3.83;;;;;;;;;;5062049;28;24462;-48
2022/09/27 03:03:35;;;;;;;4.20;3.90;;;;;;;;;;5064721;28;24948;-46
2022/09/27 03:06:03;;;;;;;3.83;3.60;;;;;;;;;;5063842;28;24516;-47
2022/09/27 03:08:28;;;;;;;4.10;3.80;;;;;;;;;;5064899;28;24461;-48
2022/09/27 03:10:54;;;;;;;4.50;4.20;;;;;;;;;;5062420;28;24489;-47
2022/09/27 03:13:19;;;;;;;4.30;3.90;;;;;;;;;;5064398;28;24960;-48
2022/09/27 03:15:44;;;;;;;4.70;4.40;;;;;;;;;;5057499;28;24427;-48
2022/09/27 03:18:09;;;;;;;4.70;4.40;;;;;;;;;;5048213;28;24458;-47
2022/09/27 03:20:34;;;;;;;4.40;4.10;;;;;;;;;;5057460;28;25038;-50
2022/09/27 03:22:59;;;;;;;4.87;4.57;;;;;;;;;;5063732;28;24517;-47
2022/09/27 03:25:25;;;;;;;4.70;4.40;;;;;;;;;;5058648;28;24435;-46
2022/09/27 03:27:50;;;;;;;4.60;4.20;;;;;;;;;;5063470;28;24979;-49
2022/09/27 03:30:16;;;;;;;4.57;4.27;;;;;;;;;;5059745;28;24419;-46
2022/09/27 03:32:41;;;;;;;5.40;4.90;;;;;;;;;;5064001;28;24499;-48
2022/09/27 03:35:07;;;;;;;5.13;4.72;;;;;;;;;;5063041;28;24513;-47
2022/09/27 03:37:32;;;;;;;5.37;4.97;;;;;;;;;;5061824;28;24423;-46
2022/09/27 03:39:57;;;;;;;5.55;5.05;;;;;;;;;;5055161;28;24516;-46
2022/09/27 03:42:22;;;;;;;5.70;5.25;;;;;;;;;;5050303;28;24565;-46
2022/09/27 03:44:47;;;;;;;5.60;5.20;;;;;;;;;;5064189;28;24411;-47
2022/09/27 03:47:12;;;;;;;5.25;4.85;;;;;;;;;;5063724;28;24449;-47
2022/09/27 03:49:37;;;;;;;6.07;5.60;;;;;;;;;;5061104;28;24426;-47
2022/09/27 03:52:03;;;;;;;5.50;5.10;;;;;;;;;;5061620;28;24430;-48
2022/09/27 03:54:28;;;;;;;5.57;5.18;;;;;;;;;;5062749;28;24553;-46
2022/09/27 03:56:53;;;;;;;6.18;5.78;;;;;;;;;;5062610;28;24438;-46
2022/09/27 03:59:18;;;;;;;6.05;5.55;;;;;;;;;;5064886;28;24426;-46
2022/09/27 04:01:44;;;;;;;6.30;5.82;;;;;;;;;;5059705;28;24521;-46
2022/09/27 04:04:09;;;;;;;6.00;5.50;;;;;;;;;;5059814;28;24762;-46
2022/09/27 04:06:34;;;;;;;6.17;5.77;;;;;;;;;;5063202;28;24411;-46
2022/09/27 04:09:00;;;;;;;6.00;5.60;;;;;;;;;;5054537;28;24805;-46
2022/09/27 04:11:25;;;;;;;6.00;5.50;;;;;;;;;;5053604;28;24814;-46
2022/09/27 04:13:50;;;;;;;6.10;5.70;;;;;;;;;;5057934;28;24526;-47
2022/09/27 04:16:15;;;;;;;6.13;5.72;;;;;;;;;;5062810;28;24522;-47
2022/09/27 04:18:40;;;;;;;6.88;6.38;;;;;;;;;;5060645;28;24430;-47
2022/09/27 04:21:05;;;;;;;6.53;6.03;;;;;;;;;;5063912;28;24881;-48
2022/09/27 04:23:31;;;;;;;6.90;6.40;;;;;;;;;;5058620;28;24759;-47
2022/09/27 04:25:56;;;;;;;6.50;6.10;;;;;;;;;;5064387;28;24944;-46
2022/09/27 04:28:21;;;;;;;7.20;6.70;;;;;;;;;;5058235;28;24581;-46
2022/09/27 04:30:47;;;;;;;7.40;6.80;;;;;;;;;;5062147;28;24435;-48
2022/09/27 04:33:12;;;;;;;7.38;6.78;;;;;;;;;;5055234;28;25239;-47
2022/09/27 04:38:22;;;;;;;7.93;7.32;;;;;;;;;;5056584;28;24931;-47
2022/09/27 04:40:48;;;;;;;7.20;6.70;;;;;;;;;;5063192;28;24960;-46
2022/09/27 04:43:13;;;;;;;7.00;6.50;;;;;;;;;;5057919;28;24423;-46
2022/09/27 04:45:38;;;;;;;7.60;7.10;;;;;;;;;;5063115;28;24461;-47
2022/09/27 04:48:03;;;;;;;7.40;6.90;;;;;;;;;;5061410;28;24469;-47
2022/09/27 04:50:28;;;;;;;7.75;7.15;;;;;;;;;;5055192;28;25303;-46
2022/09/27 04:52:53;;;;;;;7.97;7.47;;;;;;;;;;5060090;28;24422;-46
2022/09/27 04:55:19;;;;;;;8.05;7.45;;;;;;;;;;5058879;28;24422;-47
2022/09/27 04:57:44;;;;;;;7.25;6.75;;;;;;;;;;5056771;28;24928;-47
2022/09/27 05:00:10;;;;;;;7.13;6.63;;;;;;;;;;5057595;28;24439;-46
2022/09/27 05:02:35;;;;;;;6.97;6.50;;;;;;;;;;5051189;28;24426;-47
2022/09/27 05:05:00;;;;;;;6.90;6.50;;;;;;;;;;5049313;28;24825;-46
2022/09/27 05:07:26;;;;;;;6.50;6.10;;;;;;;;;;5048935;28;24844;-46
2022/09/27 05:09:51;;;;;;;7.20;6.70;;;;;;;;;;5057189;28;24519;-47
2022/09/27 05:12:17;;;;;;;7.30;6.85;;;;;;;;;;5050673;28;24427;-46
2022/09/27 05:14:42;;;;;;;7.80;7.30;;;;;;;;;;5055510;28;24773;-47
2022/09/27 05:17:07;;;;;;;8.20;7.60;;;;;;;;;;5060361;28;24419;-47
2022/09/27 05:19:32;;;;;;;8.93;8.33;;;;;;;;;;5054265;28;24505;-48
2022/09/27 05:21:58;;;;;;;8.93;8.32;;;;;;;;;;5058788;28;24499;-47
2022/09/27 05:24:23;;;;;;;8.93;8.33;;;;;;;;;;5058920;28;24983;-46
2022/09/27 05:26:48;;;;;;;8.93;8.32;;;;;;;;;;5066260;28;24457;-47
2022/09/27 05:29:13;;;;;;;8.38;7.88;;;;;;;;;;5065890;28;25031;-47
2022/09/27 05:31:39;;;;;;;8.30;7.80;;;;;;;;;;5065266;28;24449;-47
2022/09/27 05:34:04;;;;;;;8.82;8.23;;;;;;;;;;5064809;28;24514;-48
2022/09/27 05:36:29;;;;;;;8.07;7.53;;;;;;;;;;5065862;28;24430;-48
2022/09/27 05:38:54;;;;;;;9.05;8.45;;;;;;;;;;5065910;28;24379;-47
2022/09/27 05:41:20;;;;;;;8.73;8.13;;;;;;;;;;5065672;28;24403;-48
2022/09/27 05:43:46;;;;;;;9.50;8.80;;;;;;;;;;5065819;28;25042;-47
2022/09/27 05:46:11;;;;;;;8.15;7.65;;;;;;;;;;5063568;28;24427;-47
2022/09/27 05:48:36;;;;;;;8.25;7.75;;;;;;;;;;5065675;28;24401;-48
2022/09/27 05:51:01;;;;;;;7.60;7.20;;;;;;;;;;5065797;28;24410;-48
2022/09/27 05:53:26;;;;;;;8.07;7.57;;;;;;;;;;5065797;28;24395;-47
2022/09/27 05:55:52;;;;;;;8.15;7.55;;;;;;;;;;5060761;28;24430;-47
2022/09/27 05:58:17;;;;;;;8.07;7.57;;;;;;;;;;5060566;28;24430;-47
2022/09/27 06:00:42;;;;;;;7.60;7.10;;;;;;;;;;5063448;28;24581;-48
2022/09/27 06:03:09;;;;;;;7.70;7.20;;;;;;;;;;5065197;28;24480;-47
2022/09/27 06:05:36;;;;;;;7.63;7.13;;;;;;;;;;5056264;28;24414;-47
2022/09/27 06:08:03;;;;;;;8.60;8.00;;;;;;;;;;5052265;28;24512;-47
2022/09/27 06:10:29;;;;;;;9.05;8.45;;;;;;;;;;5064567;28;24442;-48
2022/09/27 06:13:01;;;;;;;9.00;8.50;;;;;;;;;;5064710;28;24462;-47
2022/09/27 06:15:26;;;;;;;9.43;8.73;;;;;;;;;;5068517;28;24429;-46
2022/09/27 06:17:52;;;;;;;9.35;8.75;;;;;;;;;;5062903;28;24429;-46
2022/09/27 06:20:17;;;;;;;11.00;10.30;;;;;;;;;;5064862;28;24961;-48
2022/09/27 06:22:42;;;;;;;10.63;9.93;;;;;;;;;;5067100;28;24553;-48
2022/09/27 06:25:08;;;;;;;9.83;9.23;;;;;;;;;;5068277;28;24423;-47
2022/09/27 06:27:33;;;;;;;10.55;9.85;;;;;;;;;;5061476;28;24518;-48
2022/09/27 06:29:59;;;;;;;10.40;9.70;;;;;;;;;;5066111;28;24529;-47
2022/09/27 06:32:24;;;;;;;11.00;10.20;;;;;;;;;;5066459;28;24979;-47
2022/09/27 06:34:49;;;;;;;10.23;9.63;;;;;;;;;;5064430;28;25312;-47
2022/09/27 06:37:14;;;;;;;9.70;9.10;;;;;;;;;;5068785;28;24965;-47
2022/09/27 06:39:39;;;;;;;10.57;9.98;;;;;;;;;;5067448;28;24407;-46
2022/09/27 06:42:04;;;;;;;10.60;9.90;;;;;;;;;;5067183;28;24464;-46
2022/09/27 06:44:29;;;;;;;10.63;9.93;;;;;;;;;;5065064;28;24926;-45
2022/09/27 06:46:55;;;;;;;10.90;10.20;;;;;;;;;;5067788;28;24449;-47
2022/09/27 06:49:21;;;;;;;10.67;9.97;;;;;;;;;;5064548;28;24833;-45
2022/09/27 06:51:46;;;;;;;9.20;8.60;;;;;;;;;;5065276;28;24526;-47
2022/09/27 06:54:11;;;;;;;9.90;9.30;;;;;;;;;;5066862;28;24429;-48
2022/09/27 06:56:37;;;;;;;11.02;10.32;;;;;;;;;;5067167;28;24512;-47
2022/09/27 07:01:46;;;;;;;10.75;10.05;;;;;;;;;;5066882;28;24426;-46
2022/09/27 07:04:11;;;;;;;10.00;9.40;;;;;;;;;;5068281;28;24390;-48
2022/09/27 07:06:36;;;;;;;10.10;9.50;;;;;;;;;;5065440;28;24449;-46
2022/09/27 07:09:01;;;;;;;10.30;9.60;;;;;;;;;;5066267;28;24470;-47
2022/09/27 07:11:26;;;;;;;10.05;9.43;;;;;;;;;;5064987;28;24430;-47
2022/09/27 07:13:52;;;;;;;10.20;9.60;;;;;;;;;;5066538;28;24475;-46
2022/09/27 07:16:17;;;;;;;9.97;9.37;;;;;;;;;;5066996;28;25179;-46
2022/09/27 07:18:43;;;;;;;11.35;10.65;;;;;;;;;;5063805;28;24489;-47
2022/09/27 07:21:08;;;;;;;9.60;9.00;;;;;;;;;;5064622;28;24427;-46
2022/09/27 07:23:35;;;;;;;10.13;9.52;;;;;;;;;;5067769;28;24804;-46
2022/09/27 07:26:03;;;;;;;10.65;9.95;;;;;;;;;;5066229;28;24419;-46
2022/09/27 07:28:28;;;;;;;10.13;9.53;;;;;;;;;;5067704;28;24414;-47
2022/09/27 07:30:54;;;;;;;10.20;9.60;;;;;;;;;;5066859;28;24462;-46
2022/09/27 07:33:19;;;;;;;10.50;9.90;;;;;;;;;;5063782;28;24425;-47
2022/09/27 07:35:44;;;;;;;12.05;11.25;;;;;;;;;;5066119;28;24439;-46
2022/09/27 07:38:12;;;;;;;9.40;8.80;;;;;;;;;;5067024;28;24483;-47
2022/09/27 07:40:38;;;;;;;10.48;9.88;;;;;;;;;;5063752;28;24489;-46
2022/09/27 07:43:03;;;;;;;9.53;8.93;;;;;;;;;;5065859;28;24407;-46
2022/09/27 07:45:30;;;;;;;9.60;9.00;;;;;;;;;;5066550;28;24564;-46
2022/09/27 07:47:55;;;;;;;9.30;8.80;;;;;;;;;;5066079;28;24406;-45
2022/09/27 07:50:20;;;;;;;9.63;9.03;;;;;;;;;;5065689;28;24434;-46
2022/09/27 07:52:46;;;;;;;10.00;9.40;;;;;;;;;;5063943;28;24399;-46
2022/09/27 07:55:12;;;;;;;8.95;8.40;;;;;;;;;;5066076;28;24901;-45
2022/09/27 07:57:38;;;;;;;10.20;9.60;;;;;;;;;;5063779;28;24405;-47
2022/09/27 08:00:04;;;;;;;9.45;8.85;;;;;;;;;;5065972;28;24964;-47
2022/09/27 08:02:31;;;;;;;9.02;8.43;;;;;;;;;;5066937;28;24486;-46
2022/09/27 08:04:56;;;;;;;9.63;9.03;;;;;;;;;;5065975;28;24736;-47
2022/09/27 08:07:22;;;;;;;7.77;7.30;;;;;;;;;;5066876;28;24395;-47
2022/09/27 08:09:47;;;;;;;7.93;7.43;;;;;;;;;;5063802;28;24785;-47
2022/09/27 08:12:12;;;;;;;7.70;7.20;;;;;;;;;;5067297;28;24401;-47
2022/09/27 08:14:37;;;;;;;7.10;6.70;;;;;;;;;;5063531;28;24488;-48
2022/09/27 08:17:03;;;;;;;6.03;5.63;;;;;;;;;;5065235;28;24769;-47
2022/09/27 08:19:28;;;;;;;5.47;5.10;;;;;;;;;;5063309;28;24506;-48
2022/09/27 08:21:54;;;;;;;4.80;4.50;;;;;;;;;;5065411;28;24547;-46
2022/09/27 08:24:19;;;;;;;4.20;3.90;;;;;;;;;;5065028;28;24415;-47
2022/09/27 08:26:44;;;;;;;3.70;3.50;;;;;;;;;;5065362;28;24466;-47
2022/09/27 08:29:11;;;;;;;2.80;2.60;;;;;;;;;;5065799;28;24487;-46
2022/09/27 08:31:36;;;;;;;1.60;1.50;;;;;;;;;;5063062;28;24414;-47
2022/09/27 08:34:02;;;;;;;1.30;1.20;;;;;;;;;;5065375;28;24421;-46
2022/09/27 08:36:29;;;;;;;1.53;1.43;;;;;;;;;;5066395;28;24456;-47
2022/09/27 08:38:57;;;;;;;1.20;1.20;;;;;;;;;;5064058;28;25028;-47
2022/09/27 08:41:35;;;;;;;1.15;1.08;;;;;;;;;;5063066;28;24402;-47
2022/09/27 08:44:06;;;;;;;1.00;0.90;;;;;;;;;;5063089;28;24545;-47
2022/09/27 08:46:49;;;;;;;1.10;1.10;;;;;;;;;;5064864;28;25035;-47
2022/09/27 08:49:21;;;;;;;1.20;1.20;;;;;;;;;;5064886;28;24438;-47
2022/09/27 08:51:49;;;;;;;1.10;1.10;;;;;;;;;;5044575;28;24505;-47
2022/09/27 08:54:20;;;;;;;0.80;0.80;;;;;;;;;;5046425;28;24414;-48
2022/09/27 08:56:48;;;;;;;0.80;0.80;;;;;;;;;;5046127;28;24975;-48
2022/09/27 08:59:13;;;;;;;0.70;0.70;;;;;;;;;;5046612;28;24479;-49
2022/09/27 09:01:40;;;;;;;0.90;0.90;;;;;;;;;;5044299;28;24499;-47
2022/09/27 09:04:06;;;;;;;0.77;0.77;;;;;;;;;;5046165;28;24423;-48
2022/09/27 09:06:31;;;;;;;1.00;0.90;;;;;;;;;;5046495;28;24392;-48
2022/09/27 09:08:56;;;;;;;1.05;1.05;;;;;;;;;;5046085;28;24395;-47
2022/09/27 09:14:42;;;;;;;0.90;0.90;;;;;;;;;;5045919;28;24750;-47
2022/09/27 09:17:26;;;;;;;0.80;0.80;;;;;;;;;;5046258;28;24858;-47
2022/09/27 09:19:54;;;;;;;0.57;0.57;;;;;;;;;;5045799;28;24490;-46
2022/09/27 09:22:28;;;;;;;0.60;0.60;;;;;;;;;;5044427;28;24449;-46
2022/09/27 09:24:58;;;;;;;0.60;0.60;;;;;;;;;;5046177;28;24411;-47
2022/09/27 09:27:34;;;;;;;1.00;0.52;;;;;;;;;;5046100;28;24402;-46
2022/09/27 09:30:12;;;;;;;1.00;1.00;;;;;;;;;;5045492;28;24423;-47
2022/09/27 09:32:38;;;;;;;1.10;1.00;;;;;;;;;;5045677;28;24817;-47
2022/09/27 09:35:06;;;;;;;1.20;1.10;;;;;;;;;;5045595;28;24447;-47
2022/09/27 09:37:31;;;;;;;1.30;0.60;;;;;;;;;;5046337;28;24382;-47
2022/09/27 09:40:03;;;;;;;0.90;0.90;;;;;;;;;;5043421;28;24402;-46
2022/09/27 09:42:31;;;;;;;0.80;0.60;;;;;;;;;;5045835;28;24395;-47
2022/09/27 09:45:04;;;;;;;0.50;0.47;;;;;;;;;;5045649;28;24557;-46
2022/09/27 09:47:34;;;;;;;0.60;0.40;;;;;;;;;;5046724;28;24452;-47
2022/09/27 09:50:02;;;;;;;0.60;0.60;;;;;;;;;;5054543;28;24422;-46
2022/09/27 09:52:38;;;;;;;0.60;0.60;;;;;;;;;;5069799;28;24514;-46
2022/09/27 09:55:14;;;;;;;0.75;0.60;;;;;;;;;;5069790;28;24520;-48
2022/09/27 09:57:44;;;;;;;0.70;0.60;;;;;;;;;;5069881;28;24395;-46
2022/09/27 10:00:13;;;;;;;0.70;0.60;;;;;;;;;;5069004;28;24414;-46
2022/09/27 10:02:43;;;;;;;0.60;0.60;;;;;;;;;;5069647;28;24862;-46
2022/09/27 10:05:18;;;;;;;0.60;0.60;;;;;;;;;;5069373;28;24429;-48
2022/09/27 10:07:44;;;;;;;0.50;0.50;;;;;;;;;;5069484;28;24387;-48
2022/09/27 10:10:13;;;;;;;0.80;0.55;;;;;;;;;;5068923;28;24487;-48
2022/09/27 10:12:39;;;;;;;0.60;0.60;;;;;;;;;;5069186;28;24405;-48
2022/09/27 10:15:04;;;;;;;0.90;0.50;;;;;;;;;;5069527;28;24803;-46
2022/09/27 10:17:38;;;;;;;0.82;0.50;;;;;;;;;;5069144;28;24432;-46
2022/09/27 10:20:05;;;;;;;0.60;0.50;;;;;;;;;;5069011;28;24437;-47
2022/09/27 10:22:38;;;;;;;0.70;0.70;;;;;;;;;;5067062;28;24460;-47
2022/09/27 10:25:08;;;;;;;0.82;0.65;;;;;;;;;;5068815;28;24390;-46
2022/09/27 10:27:40;;;;;;;1.05;0.60;;;;;;;;;;5069054;28;24939;-47
2022/09/27 10:30:06;;;;;;;0.50;0.50;;;;;;;;;;5069084;28;25135;-46
2022/09/27 10:32:35;;;;;;;0.50;0.50;;;;;;;;;;5068386;28;25013;-47
2022/09/27 10:35:33;;;;;;;1.73;0.60;;;;;;;;;;5068670;28;24434;-46
2022/09/27 10:38:11;;;;;;;0.63;0.60;;;;;;;;;;5068743;28;24379;-47
2022/09/27 10:40:36;;;;;;;1.00;0.50;;;;;;;;;;5068775;28;24399;-47
2022/09/27 10:43:01;;;;;;;0.50;0.50;;;;;;;;;;5068454;28;24410;-47
2022/09/27 10:45:28;;;;;;;0.50;0.40;;;;;;;;;;5068961;28;24557;-47
2022/09/27 10:47:53;;;;;;;0.50;0.50;;;;;;;;;;5068647;28;24401;-47
2022/09/27 10:50:25;;;;;;;0.70;0.50;;;;;;;;;;5062775;28;24817;-47
2022/09/27 10:52:59;;;;;;;0.50;0.50;;;;;;;;;;5066200;28;24418;-47
2022/09/27 10:55:26;;;;;;;0.65;0.50;;;;;;;;;;5064609;28;24963;-46
2022/09/27 10:57:52;;;;;;;0.57;0.50;;;;;;;;;;5066796;28;24390;-47
2022/09/27 11:00:26;;;;;;;0.60;0.50;;;;;;;;;;5067728;28;24800;-47
2022/09/27 11:02:52;;;;;;;0.70;0.40;;;;;;;;;;5066519;28;24511;-47
2022/09/27 11:05:25;;;;;;;2.10;0.40;;;;;;;;;;5068199;28;24403;-47
2022/09/27 11:07:52;;;;;;;0.80;0.50;;;;;;;;;;5065642;28;24423;-48
2022/09/27 11:10:23;;;;;;;0.50;0.45;;;;;;;;;;5067697;28;24449;-47
2022/09/27 11:13:05;;;;;;;1.00;0.50;;;;;;;;;;5066208;28;24423;-47
2022/09/27 11:15:33;;;;;;;0.60;0.50;;;;;;;;;;5068121;28;24387;-47
2022/09/27 11:18:05;;;;;;;1.38;0.60;;;;;;;;;;5067088;28;24429;-47
2022/09/27 11:20:37;;;;;;;0.60;0.60;;;;;;;;;;5066007;28;24486;-47
2022/09/27 11:23:02;;;;;;;1.20;0.60;;;;;;;;;;5064885;28;25077;-47
2022/09/27 11:25:46;;;;;;;0.70;0.50;;;;;;;;;;5064371;28;25163;-47
2022/09/27 11:28:14;;;;;;;0.60;0.50;;;;;;;;;;5066767;28;24419;-47
2022/09/27 11:30:58;;;;;;;0.70;0.40;;;;;;;;;;5064116;28;24423;-48
2022/09/27 11:33:31;;;;;;;0.50;0.50;;;;;;;;;;5065400;28;24427;-46
2022/09/27 11:36:17;;;;;;;1.30;0.60;;;;;;;;;;5063860;28;24580;-47
2022/09/27 11:38:45;;;;;;;0.70;0.70;;;;;;;;;;5045912;28;24452;-47
2022/09/27 11:41:22;;;;;;;1.00;0.60;;;;;;;;;;5067336;28;24446;-47
2022/09/27 11:43:58;;;;;;;0.50;0.50;;;;;;;;;;5065566;28;24933;-47
2022/09/27 11:46:29;;;;;;;0.60;0.60;;;;;;;;;;5067796;28;24765;-47
2022/09/27 11:49:16;;;;;;;0.98;0.60;;;;;;;;;;5067584;28;24483;-47
2022/09/27 11:51:44;;;;;;;0.88;0.70;;;;;;;;;;5067334;28;24415;-45
2022/09/27 11:54:27;;;;;;;0.80;0.60;;;;;;;;;;5066615;28;24857;-49
2022/09/27 11:56:52;;;;;;;0.63;0.60;;;;;;;;;;5067352;28;24442;-46
2022/09/27 11:59:36;;;;;;;0.60;0.50;;;;;;;;;;5067368;28;24444;-47
2022/09/27 12:02:19;;;;;;;0.60;0.60;;;;;;;;;;5066772;28;24394;-47
2022/09/27 12:04:58;;;;;;;0.93;0.60;;;;;;;;;;5067577;28;24410;-47
2022/09/27 12:07:39;;;;;;;0.60;0.60;;;;;;;;;;5067434;28;24753;-47
2022/09/27 12:10:09;;;;;;;0.90;0.60;;;;;;;;;;5065934;28;24773;-47
2022/09/27 12:12:35;;;;;;;1.20;0.70;;;;;;;;;;5064838;28;24395;-47
2022/09/27 12:15:03;;;;;;;0.70;0.50;;;;;;;;;;5067010;28;24422;-47
2022/09/27 12:17:32;;;;;;;0.80;0.70;;;;;;;;;;5067272;28;24418;-47
2022/09/27 12:19:58;;;;;;;0.60;0.60;;;;;;;;;;5067028;28;24488;-47
2022/09/27 12:22:27;;;;;;;0.80;0.60;;;;;;;;;;5066574;28;24440;-46
2022/09/27 12:24:52;;;;;;;0.60;0.60;;;;;;;;;;5066435;28;24390;-47
2022/09/27 12:27:25;;;;;;;0.40;0.40;;;;;;;;;;5066904;28;24758;-46
2022/09/27 12:29:54;;;;;;;0.55;0.50;;;;;;;;;;5066421;28;24405;-46
2022/09/27 12:32:29;;;;;;;0.60;0.60;;;;;;;;;;5066547;28;24448;-46
2022/09/27 12:34:54;;;;;;;1.58;0.73;;;;;;;;;;5066474;28;24480;-46
2022/09/27 12:37:29;;;;;;;1.40;0.60;;;;;;;;;;5066745;28;24870;-46
2022/09/27 12:40:14;;;;;;;0.55;0.55;;;;;;;;;;5066554;28;24394;-47
2022/09/27 12:42:39;;;;;;;0.73;0.50;;;;;;;;;;5066288;28;24510;-46
2022/09/27 12:45:05;;;;;;;0.70;0.60;;;;;;;;;;5066694;28;24474;-47
2022/09/27 12:47:30;;;;;;;1.02;0.63;;;;;;;;;;5066207;28;24498;-47
2022/09/27 12:50:04;;;;;;;0.60;0.50;;;;;;;;;;5066350;28;24379;-47
2022/09/27 12:52:35;;;;;;;0.50;0.50;;;;;;;;;;5066405;28;24417;-47
2022/09/27 12:55:21;;;;;;;0.80;0.70;;;;;;;;;;5066229;28;24955;-47
2022/09/27 12:57:48;;;;;;;0.60;0.60;;;;;;;;;;5066453;28;24482;-47
2022/09/27 13:00:14;;;;;;;0.80;0.73;;;;;;;;;;5066064;28;24972;-47
2022/09/27 13:02:39;;;;;;;0.60;0.60;;;;;;;;;;5066072;28;25283;-47
2022/09/27 13:05:04;;;;;;;0.60;0.60;;;;;;;;;;5066181;28;24390;-46
2022/09/27 13:07:37;;;;;;;0.80;0.80;;;;;;;;;;5066016;28;24473;-46
2022/09/27 13:10:14;;;;;;;0.80;0.50;;;;;;;;;;5065824;28;24419;-47
2022/09/27 13:12:40;;;;;;;0.60;0.60;;;;;;;;;;5066011;28;24831;-46
2022/09/27 13:15:14;;;;;;;0.70;0.70;;;;;;;;;;5065810;28;24474;-47
2022/09/27 13:17:39;;;;;;;0.63;0.60;;;;;;;;;;5066217;28;24405;-45
2022/09/27 13:20:32;;;;;;;0.60;0.40;;;;;;;;;;5065955;28;24406;-45
2022/09/27 13:22:57;;;;;;;0.70;0.60;;;;;;;;;;5065354;28;24421;-46
2022/09/27 13:25:42;;;;;;;0.70;0.70;;;;;;;;;;5065700;28;24423;-47
2022/09/27 13:28:26;;;;;;;0.50;0.40;;;;;;;;;;5066007;28;24425;-46
2022/09/27 13:30:52;;;;;;;0.60;0.60;;;;;;;;;;5065798;28;24431;-46
2022/09/27 13:33:21;;;;;;;0.63;0.63;;;;;;;;;;5064278;28;24802;-46
2022/09/27 13:36:05;;;;;;;0.70;0.70;;;;;;;;;;5061740;28;24435;-46
2022/09/27 13:38:31;;;;;;;0.60;0.60;;;;;;;;;;5062847;28;24423;-46
2022/09/27 13:41:13;;;;;;;0.60;0.60;;;;;;;;;;5063806;28;24505;-47
2022/09/27 13:43:52;;;;;;;0.60;0.60;;;;;;;;;;5061076;28;24514;-47
2022/09/27 13:46:19;;;;;;;0.60;0.60;;;;;;;;;;5063582;28;24533;-46
2022/09/27 13:48:46;;;;;;;0.80;0.80;;;;;;;;;;5063151;28;24441;-46
2022/09/27 13:51:29;;;;;;;1.10;0.65;;;;;;;;;;5065441;28;24442;-47
2022/09/27 13:54:01;;;;;;;0.70;0.70;;;;;;;;;;5062745;28;24415;-47
2022/09/27 13:56:36;;;;;;;0.68;0.68;;;;;;;;;;5063680;28;24394;-47
2022/09/27 13:59:04;;;;;;;0.80;0.80;;;;;;;;;;5060863;28;24816;-46
2022/09/27 14:01:31;;;;;;;0.85;0.60;;;;;;;;;;5065271;28;24960;-46
2022/09/27 14:04:00;;;;;;;0.60;0.60;;;;;;;;;;5060821;28;24423;-48
2022/09/27 14:06:28;;;;;;;0.70;0.70;;;;;;;;;;5065602;28;24399;-47
2022/09/27 14:08:57;;;;;;;1.20;0.70;;;;;;;;;;5061665;28;24489;-49
2022/09/27 14:11:39;;;;;;;0.80;0.73;;;;;;;;;;5063685;28;24546;-47
2022/09/27 14:14:06;;;;;;;1.40;0.70;;;;;;;;;;5061666;28;24386;-47
2022/09/27 14:16:34;;;;;;;0.80;0.80;;;;;;;;;;5063432;28;24423;-48
2022/09/27 14:19:01;;;;;;;0.88;0.80;;;;;;;;;;5065595;28;24394;-47
2022/09/27 14:21:33;;;;;;;0.80;0.80;;;;;;;;;;5064188;28;24446;-47
2022/09/27 14:24:17;;;;;;;1.20;0.98;;;;;;;;;;5061904;28;24494;-46
2022/09/27 14:26:42;;;;;;;0.80;0.80;;;;;;;;;;5060160;28;24434;-47
2022/09/27 14:29:17;;;;;;;0.90;0.90;;;;;;;;;;5052045;28;24548;-48
2022/09/27 14:31:42;;;;;;;0.90;0.80;;;;;;;;;;5045735;28;24443;-47
2022/09/27 14:34:07;;;;;;;0.70;0.70;;;;;;;;;;5045755;28;24868;-46
2022/09/27 14:39:22;;;;;;;1.05;0.68;;;;;;;;;;5060256;28;24421;-46
2022/09/27 14:41:47;;;;;;;1.00;0.90;;;;;;;;;;5046172;28;24407;-47
2022/09/27 14:44:14;;;;;;;0.80;0.80;;;;;;;;;;5047855;28;24987;-47
2022/09/27 14:46:39;;;;;;;1.08;0.60;;;;;;;;;;5064328;28;24433;-47
2022/09/27 14:49:17;;;;;;;0.90;0.90;;;;;;;;;;5058559;28;24442;-46
2022/09/27 14:51:48;;;;;;;0.80;0.80;;;;;;;;;;5063859;28;24481;-47
2022/09/27 14:54:19;;;;;;;0.70;0.70;;;;;;;;;;5052418;28;24461;-47
2022/09/27 14:56:44;;;;;;;0.70;0.70;;;;;;;;;;5064767;28;24493;-47
2022/09/27 14:59:12;;;;;;;0.70;0.70;;;;;;;;;;5049966;28;24462;-47
2022/09/27 15:01:39;;;;;;;0.70;0.70;;;;;;;;;;5045594;28;24431;-48